Time;durP1;ratioP1;P1;durP2;ratioP2;P2;SDS_P1;SDS_P2;PMS_P1;PMS_P2;Temp;Humidity;BMP_temperature;BMP_pressure;BME280_temperature;BME280_humidity;BME280_pressure;Samples;Min_cycle;Max_cycle;Signal;HPM_P1;HPM_P2
2022/11/14 07:06:31;;;;;;;12.85;10.82;;;;;;;5.14;83.32;101079.81;5321724;27;20330;-71
2022/11/14 07:09:03;;;;;;;11.75;10.52;;;;;;;5.06;83.16;101082.97;5322480;28;20077;-72
2022/11/14 07:11:34;;;;;;;20.80;15.50;;;;;;;5.17;83.81;101084.84;5321660;28;20032;-72
2022/11/14 07:14:05;;;;;;;18.50;13.38;;;;;;;5.15;83.62;101090.56;5321793;28;20032;-72
2022/11/14 07:16:37;;;;;;;13.23;11.60;;;;;;;5.11;83.83;101083.06;5309477;28;20506;-72
2022/11/14 07:19:09;;;;;;;12.50;10.65;;;;;;;5.18;84.16;101090.06;5300979;28;20383;-72
2022/11/14 07:21:40;;;;;;;11.05;9.85;;;;;;;5.27;84.02;101089.69;5300000;28;20035;-72
2022/11/14 07:24:12;;;;;;;11.75;9.88;;;;;;;5.26;84.19;101091.59;5299409;28;20032;-72
2022/11/14 07:26:44;;;;;;;13.77;11.13;;;;;;;5.34;84.40;101093.09;5303649;28;20024;-72
2022/11/14 07:29:16;;;;;;;16.52;10.00;;;;;;;5.25;84.39;101089.94;5314907;28;20035;-72
2022/11/14 07:31:47;;;;;;;14.20;9.65;;;;;;;5.34;84.35;101079.34;5321675;28;20016;-72
2022/11/14 07:34:18;;;;;;;13.48;9.52;;;;;;;5.33;84.53;101077.69;5302899;28;20020;-72
2022/11/14 07:36:50;;;;;;;11.20;9.80;;;;;;;5.48;84.16;101077.94;5299838;28;20055;-73
2022/11/14 07:39:21;;;;;;;11.00;9.80;;;;;;;5.51;84.29;101071.09;5300665;28;20024;-73
2022/11/14 07:41:56;;;;;;;10.45;9.00;;;;;;;5.52;84.47;101059.00;5299481;28;20059;-72
2022/11/14 07:44:27;;;;;;;12.70;8.82;;;;;;;5.51;84.35;101063.69;5299126;28;20028;-73
2022/11/14 07:46:58;;;;;;;10.65;8.73;;;;;;;5.55;84.55;101067.59;5300579;28;20031;-72
2022/11/14 07:49:29;;;;;;;13.82;8.73;;;;;;;5.62;84.31;101060.03;5299985;28;20446;-72
2022/11/14 07:52:01;;;;;;;13.18;9.40;;;;;;;5.69;83.76;101070.00;5300206;28;20475;-73
2022/11/14 07:54:32;;;;;;;12.75;10.07;;;;;;;5.69;83.71;101064.50;5299834;28;20032;-72
2022/11/14 07:57:03;;;;;;;11.02;9.75;;;;;;;5.69;84.20;101064.50;5299482;28;20031;-73
2022/11/14 07:59:37;;;;;;;16.30;8.98;;;;;;;5.82;83.63;101064.16;5303852;28;20020;-72
2022/11/14 08:02:13;;;;;;;11.02;9.95;;;;;;;5.84;83.91;101067.47;5321356;28;20467;-73
2022/11/14 08:04:44;;;;;;;;;;;;;;;6.04;83.96;101055.97;5320543;28;20093;-72
2022/11/14 08:07:15;;;;;;;12.13;9.30;;;;;;;5.82;83.75;101053.13;5320347;28;19911;-73
2022/11/14 08:09:47;;;;;;;11.45;8.65;;;;;;;5.93;83.93;101052.22;5320340;28;20379;-72
2022/11/14 08:12:18;;;;;;;11.00;9.65;;;;;;;6.00;83.53;101049.28;5321067;28;20040;-73
2022/11/14 08:14:49;;;;;;;10.30;9.20;;;;;;;5.96;83.80;101043.47;5321166;28;20028;-72
2022/11/14 08:17:22;;;;;;;11.70;9.40;;;;;;;5.96;84.17;101037.97;5308188;28;20039;-72
2022/11/14 08:19:53;;;;;;;14.57;10.50;;;;;;;6.09;84.60;101028.50;5307024;28;20063;-73
2022/11/14 08:22:25;;;;;;;9.80;8.77;;;;;;;6.06;83.79;101034.53;5306616;28;20056;-72
2022/11/14 08:24:57;;;;;;;15.85;10.52;;;;;;;6.19;84.23;101036.06;5304837;28;20028;-72
2022/11/14 08:27:28;;;;;;;11.43;9.25;;;;;;;6.19;84.45;101036.06;5306822;28;20032;-73
2022/11/14 08:30:00;;;;;;;11.82;10.73;;;;;;;6.27;84.27;101035.63;5306598;28;20027;-72
2022/11/14 08:32:31;;;;;;;12.80;9.75;;;;;;;6.32;83.91;101035.69;5305857;28;20044;-72
2022/11/14 08:35:03;;;;;;;11.38;9.77;;;;;;;6.23;84.18;101028.94;5306765;28;20024;-72
2022/11/14 08:37:37;;;;;;;10.95;9.85;;;;;;;6.33;84.59;101026.31;5306846;28;20024;-72
2022/11/14 08:40:11;;;;;;;11.38;10.18;;;;;;;6.26;84.40;101025.66;5304864;28;20399;-72
2022/11/14 08:42:42;;;;;;;17.88;10.95;;;;;;;6.39;84.80;101018.94;5285449;28;20073;-72
2022/11/14 08:45:14;;;;;;;15.20;11.65;;;;;;;6.40;84.38;101017.88;5284462;28;20028;-72
2022/11/14 08:47:52;;;;;;;11.43;10.25;;;;;;;6.35;84.72;101015.88;5284434;28;20112;-72
2022/11/14 08:50:23;;;;;;;10.65;9.55;;;;;;;6.39;84.53;101022.56;5295697;28;20383;-72
2022/11/14 08:52:54;;;;;;;12.07;10.68;;;;;;;6.47;84.87;101021.25;5305621;28;20017;-73
2022/11/14 08:55:26;;;;;;;12.82;9.55;;;;;;;6.48;85.00;101020.97;5305900;28;20020;-73
2022/11/14 08:57:57;;;;;;;11.77;9.98;;;;;;;6.51;84.61;101022.38;5305224;28;20028;-72
2022/11/14 09:00:28;;;;;;;10.45;9.43;;;;;;;6.54;84.81;101021.88;5305264;28;20016;-74
2022/11/14 09:03:00;;;;;;;16.17;10.10;;;;;;;6.58;84.53;101022.19;5305927;28;20024;-73
2022/11/14 09:05:31;;;;;;;11.65;9.85;;;;;;;6.59;85.52;101018.34;5305702;28;20055;-73
2022/11/14 09:08:03;;;;;;;12.48;9.88;;;;;;;6.55;85.32;101014.47;5305271;28;20067;-73
2022/11/14 09:10:36;;;;;;;12.23;9.55;;;;;;;6.65;84.76;101011.81;5304654;28;20043;-73
2022/11/14 09:13:07;;;;;;;11.57;10.25;;;;;;;6.64;85.27;101012.88;5304888;28;20020;-72
2022/11/14 09:15:38;;;;;;;11.13;9.23;;;;;;;6.65;84.93;101009.06;5305568;28;20417;-72
2022/11/14 09:18:10;;;;;;;14.32;10.20;;;;;;;6.80;85.06;101008.34;5306338;28;20017;-72
2022/11/14 09:20:42;;;;;;;10.90;9.07;;;;;;;6.87;84.80;100993.28;5304521;28;20024;-72
2022/11/14 09:23:16;;;;;;;10.75;9.65;;;;;;;6.85;84.65;100992.72;5306123;28;20082;-73
2022/11/14 09:25:47;;;;;;;14.55;10.60;;;;;;;6.96;84.38;100986.19;5305581;28;20032;-72
2022/11/14 09:28:18;;;;;;;11.80;10.48;;;;;;;7.03;84.33;100990.66;5290635;28;20068;-72
2022/11/14 09:30:50;;;;;;;11.73;10.57;;;;;;;7.13;84.96;100993.50;5284793;28;20103;-72
2022/11/14 09:33:21;;;;;;;12.07;10.02;;;;;;;7.12;84.22;100986.31;5285716;28;20021;-72
2022/11/14 09:36:00;;;;;;;13.75;12.07;;;;;;;7.19;84.69;100992.47;5283820;28;20435;-72
2022/11/14 09:38:32;;;;;;;13.68;10.45;;;;;;;7.27;84.63;100986.44;5284289;28;20020;-72
2022/11/14 09:41:24;;;;;;;13.85;10.80;;;;;;;7.38;85.06;100992.88;5283368;28;20025;-72
2022/11/14 09:44:10;;;;;;;11.45;10.35;;;;;;;7.37;84.10;100981.00;5282858;28;20024;-71
2022/11/14 09:46:44;;;;;;;12.70;11.40;;;;;;;7.42;83.98;100977.47;5283474;28;20395;-72
2022/11/14 09:49:25;;;;;;;12.20;11.10;;;;;;;7.49;83.59;100978.06;5292789;28;20049;-72
2022/11/14 09:52:08;;;;;;;12.43;10.45;;;;;;;7.58;83.75;100984.72;5292645;28;20051;-73
2022/11/14 09:54:49;;;;;;;13.63;11.13;;;;;;;7.55;83.25;100987.19;5283898;28;20055;-72
2022/11/14 09:57:24;;;;;;;12.15;10.93;;;;;;;7.63;82.86;100992.22;5282951;28;20073;-72
2022/11/14 09:59:56;;;;;;;12.88;10.52;;;;;;;7.66;83.34;100983.41;5283266;28;20426;-72
2022/11/14 10:02:47;;;;;;;11.85;10.52;;;;;;;7.78;83.11;100984.03;5282538;28;20028;-72
2022/11/14 10:05:56;;;;;;;12.18;10.88;;;;;;;7.82;82.82;100987.91;5272822;28;20128;-72
2022/11/14 10:08:33;;;;;;;12.02;10.52;;;;;;;7.86;82.66;100984.63;5283508;28;20025;-72
2022/11/14 10:11:23;;;;;;;12.63;10.88;;;;;;;7.92;82.65;100978.00;5276081;28;20025;-73
2022/11/14 10:14:19;;;;;;;12.48;10.02;;;;;;;7.94;82.82;100987.69;5262558;28;20028;-72
2022/11/14 10:17:09;;;;;;;12.15;10.43;;;;;;;7.90;82.42;100991.25;5261618;28;20029;-72
2022/11/14 10:20:22;;;;;;;12.02;10.82;;;;;;;8.00;83.21;100978.34;5262371;28;20037;-72
2022/11/14 10:23:25;;;;;;;13.63;10.60;;;;;;;8.11;83.02;100975.63;5247155;28;20041;-72
2022/11/14 10:26:15;;;;;;;14.27;11.00;;;;;;;8.02;82.24;100976.13;5262230;28;20078;-72
2022/11/14 10:29:05;;;;;;;13.00;11.48;;;;;;;8.17;82.46;100977.31;5279450;28;20108;-73
2022/11/14 10:32:09;;;;;;;13.20;10.70;;;;;;;8.15;82.69;100969.28;5273865;28;20113;-73
2022/11/14 10:34:49;;;;;;;12.85;11.55;;;;;;;8.16;83.13;100968.19;5272144;28;20021;-74
2022/11/14 10:37:32;;;;;;;15.38;13.75;;;;;;;8.19;83.00;100967.63;5268665;28;20049;-72
2022/11/14 10:40:22;;;;;;;12.02;10.70;;;;;;;8.27;83.68;100972.63;5261288;28;20078;-74
2022/11/14 10:43:00;;;;;;;13.02;11.65;;;;;;;8.38;83.25;100973.50;5279130;28;20063;-74
2022/11/14 10:45:39;;;;;;;13.43;11.90;;;;;;;8.40;82.83;100976.03;5278330;28;20039;-74
2022/11/14 10:48:24;;;;;;;12.95;11.65;;;;;;;8.43;82.04;100970.78;5280107;28;20086;-75
2022/11/14 10:51:19;;;;;;;20.30;16.55;;;;;;;8.45;81.47;100968.56;5281874;28;20035;-74
2022/11/14 10:53:57;;;;;;;13.57;12.00;;;;;;;8.44;81.54;100964.16;5273464;28;20024;-73
2022/11/14 10:56:28;;;;;;;14.15;12.30;;;;;;;8.42;80.60;100958.06;5271948;28;20024;-73
2022/11/14 10:59:00;;;;;;;12.98;11.52;;;;;;;8.57;81.32;100956.44;5281199;28;20366;-73
2022/11/14 11:01:39;;;;;;;13.15;11.85;;;;;;;8.52;81.44;100951.75;5271619;28;20024;-74
2022/11/14 11:04:14;;;;;;;15.77;12.52;;;;;;;8.63;81.44;100947.88;5263096;28;20029;-74
2022/11/14 11:06:45;;;;;;;13.90;12.50;;;;;;;8.67;81.15;100951.75;5281303;28;20368;-74
2022/11/14 11:12:19;;;;;;;14.07;12.32;;;;;;;8.80;81.49;100946.81;5295669;28;20035;-75
2022/11/14 11:15:14;;;;;;;14.77;13.20;;;;;;;8.87;81.87;100941.81;5291897;28;20497;-74
2022/11/14 11:18:03;;;;;;;15.70;12.93;;;;;;;8.91;81.36;100929.09;5281136;28;20025;-75
2022/11/14 11:20:40;;;;;;;13.82;12.40;;;;;;;8.97;80.66;100918.84;5292919;28;20039;-74
2022/11/14 11:23:11;;;;;;;15.18;13.57;;;;;;;8.92;80.09;100917.78;5283414;28;20024;-74
2022/11/14 11:25:42;;;;;;;15.18;13.52;;;;;;;8.98;80.30;100910.28;5281292;28;20041;-74
2022/11/14 11:28:19;;;;;;;15.95;14.18;;;;;;;9.06;80.73;100912.50;5280731;28;20550;-74
2022/11/14 11:30:58;;;;;;;14.73;13.23;;;;;;;9.21;80.81;100913.59;5282459;28;20017;-74
2022/11/14 11:33:35;;;;;;;15.70;14.10;;;;;;;9.26;80.30;100905.28;5299438;28;20028;-74
2022/11/14 11:36:17;;;;;;;16.48;13.57;;;;;;;9.36;80.24;100892.25;5281187;28;20035;-76
2022/11/14 11:38:48;;;;;;;15.88;14.20;;;;;;;9.41;79.26;100899.72;5283503;28;20475;-75
2022/11/14 11:41:34;;;;;;;16.23;14.45;;;;;;;9.46;79.16;100896.94;5283950;28;20029;-74
2022/11/14 11:44:12;;;;;;;16.92;15.20;;;;;;;9.47;78.79;100895.81;5281425;28;20371;-74
2022/11/14 11:46:51;;;;;;;16.98;14.32;;;;;;;9.57;79.50;100894.97;5280739;28;20543;-73
2022/11/14 11:49:47;;;;;;;17.35;14.73;;;;;;;9.57;78.83;100901.31;5286225;28;20028;-74
2022/11/14 11:52:33;;;;;;;17.30;15.60;;;;;;;9.56;78.14;100913.53;5283268;28;20025;-75
2022/11/14 11:55:17;;;;;;;17.10;15.00;;;;;;;9.49;79.46;100906.63;5285639;28;20068;-74
2022/11/14 11:58:27;;;;;;;16.30;14.68;;;;;;;9.54;80.98;100912.97;5284700;28;20016;-72
2022/11/14 12:00:58;;;;;;;20.02;17.45;;;;;;;9.52;79.79;100912.41;5284473;28;20059;-71
2022/11/14 12:03:29;;;;;;;18.13;16.33;;;;;;;9.53;79.43;100913.25;5283559;28;20051;-72
2022/11/14 12:06:13;;;;;;;17.73;15.93;;;;;;;9.59;79.71;100917.66;5282646;28;20033;-72
2022/11/14 12:09:12;;;;;;;17.27;15.45;;;;;;;9.52;79.93;100917.94;5283183;28;20055;-71
2022/11/14 12:11:51;;;;;;;16.70;15.07;;;;;;;9.53;80.40;100911.28;5264104;28;20021;-72
2022/11/14 12:14:46;;;;;;;17.55;15.75;;;;;;;9.59;80.75;100920.44;5264229;28;20447;-73
2022/11/14 12:17:44;;;;;;;19.00;17.05;;;;;;;9.64;80.59;100914.03;5263052;28;20026;-74
2022/11/14 12:21:08;;;;;;;19.73;16.73;;;;;;;9.63;78.92;100917.94;5274072;28;20029;-72
2022/11/14 12:24:17;;;;;;;17.08;14.65;;;;;;;9.90;82.97;100915.63;5161737;28;20053;-72
2022/11/14 12:26:57;;;;;;;18.67;16.67;;;;;;;9.72;79.61;100911.53;5263292;28;20017;-72
2022/11/14 12:29:46;;;;;;;18.25;16.42;;;;;;;9.74;79.40;100912.09;5263492;28;20029;-71
2022/11/14 12:32:28;;;;;;;18.65;16.77;;;;;;;9.71;78.75;100909.03;5262634;28;20036;-71
2022/11/14 12:35:04;;;;;;;19.38;17.25;;;;;;;9.66;79.59;100907.09;5263043;28;20472;-71
2022/11/14 12:37:42;;;;;;;19.67;17.67;;;;;;;9.62;79.88;100900.50;5296315;28;20032;-71
2022/11/14 12:40:28;;;;;;;18.67;16.75;;;;;;;9.72;81.09;100914.31;5268365;28;20515;-70
2022/11/14 12:43:01;;;;;;;19.30;17.15;;;;;;;9.73;79.93;100915.94;5262902;28;20047;-72
2022/11/14 12:45:41;;;;;;;20.45;17.83;;;;;;;9.68;79.99;100918.72;5262230;28;20128;-69
2022/11/14 12:48:29;;;;;;;21.48;18.10;;;;;;;9.72;80.59;100914.31;5268751;28;20052;-72
2022/11/14 12:51:02;;;;;;;21.77;19.40;;;;;;;9.71;80.16;100906.25;5262009;28;20229;-73
2022/11/14 12:53:36;;;;;;;22.02;19.73;;;;;;;9.64;80.12;100906.56;5263413;28;20040;-73
2022/11/14 12:56:32;;;;;;;22.08;19.17;;;;;;;9.72;80.23;100896.84;5269195;28;20033;-72
2022/11/14 12:59:34;;;;;;;20.50;18.50;;;;;;;9.68;80.30;100891.03;5273202;28;20052;-72
2022/11/14 13:02:24;;;;;;;21.88;18.40;;;;;;;9.69;80.38;100881.63;5263573;28;20021;-72
2022/11/14 13:05:15;;;;;;;20.85;18.52;;;;;;;9.64;80.00;100878.03;5268955;28;20354;-73
2022/11/14 13:08:06;;;;;;;21.38;18.60;;;;;;;9.65;80.29;100863.91;5261479;28;20108;-72
2022/11/14 13:10:41;;;;;;;23.23;19.98;;;;;;;9.65;79.76;100849.25;5262418;28;20107;-72
2022/11/14 13:21:44;;;;;;;20.17;18.08;;;;;;;9.67;79.06;100835.97;5267631;28;20449;-72
2022/11/14 13:22:11;;;;;;;15.07;12.85;;;;;;;10.15;79.45;100833.44;5262221;28;20426;-67
2022/11/14 13:24:58;;;;;;;16.10;13.10;;;;;;;10.22;75.71;100820.09;5266782;28;20490;-67
2022/11/14 13:27:31;;;;;;;12.35;11.07;;;;;;;10.43;77.33;100807.81;5267232;28;20028;-68
2022/11/14 13:30:06;;;;;;;14.75;12.45;;;;;;;10.34;73.32;100806.75;5272362;28;20073;-68
2022/11/14 13:32:40;;;;;;;12.82;11.45;;;;;;;10.29;72.91;100806.78;5291356;28;20085;-69
2022/11/14 13:35:19;;;;;;;13.38;11.73;;;;;;;10.43;73.44;100812.50;5282267;28;20025;-69
2022/11/14 13:38:13;;;;;;;11.82;10.63;;;;;;;10.54;73.17;100797.44;5282672;28;20036;-71
2022/11/14 13:40:59;;;;;;;12.50;11.18;;;;;;;10.61;72.97;100781.31;5274844;28;20020;-70
2022/11/14 13:43:52;;;;;;;14.02;10.75;;;;;;;10.66;71.97;100778.47;5260626;28;20115;-69
2022/11/14 13:46:46;;;;;;;13.57;11.10;;;;;;;10.79;72.38;100776.97;5264025;28;20454;-68
2022/11/14 13:49:56;;;;;;;14.02;12.05;;;;;;;10.74;70.85;100774.25;5280871;28;20025;-68
2022/11/14 13:52:31;;;;;;;11.95;10.75;;;;;;;10.75;69.87;100770.34;5279243;28;20036;-69
2022/11/14 13:55:03;;;;;;;12.60;9.82;;;;;;;10.83;69.00;100768.88;5267156;28;20120;-68
2022/11/14 13:57:47;;;;;;;10.45;8.98;;;;;;;10.91;69.10;100781.28;5261427;28;20041;-68
2022/11/14 14:00:18;;;;;;;12.80;10.38;;;;;;;10.88;68.46;100791.00;5261889;28;20467;-68
2022/11/14 14:02:55;;;;;;;10.27;9.25;;;;;;;10.93;68.88;100787.38;5272874;28;20029;-69
2022/11/14 14:06:06;;;;;;;12.95;9.15;;;;;;;11.00;68.67;100793.41;5270769;28;20132;-68
2022/11/14 14:08:46;;;;;;;10.75;9.52;;;;;;;10.84;67.44;100795.50;5291931;28;20112;-69
2022/11/14 14:11:29;;;;;;;11.32;9.05;;;;;;;10.90;67.46;100787.97;5303313;28;20028;-69
2022/11/14 14:14:05;;;;;;;50.47;45.08;;;;;;;10.92;67.55;100782.94;5302733;28;20027;-69
2022/11/14 14:17:02;;;;;;;20.58;17.73;;;;;;;10.84;68.49;100779.69;5302402;28;20032;-67
2022/11/14 14:20:10;;;;;;;11.45;9.77;;;;;;;10.90;68.74;100785.19;5303100;28;20024;-69
2022/11/14 14:22:52;;;;;;;11.32;9.70;;;;;;;10.65;68.22;100776.81;5259981;28;20035;-69
2022/11/14 14:25:40;;;;;;;12.02;9.45;;;;;;;10.72;69.41;100778.44;5260832;28;20391;-69
2022/11/14 14:28:28;;;;;;;12.02;10.82;;;;;;;10.65;71.11;100773.22;5260970;28;20103;-69
2022/11/14 14:31:19;;;;;;;14.20;10.18;;;;;;;10.65;69.61;100778.75;5260364;28;20049;-69
2022/11/14 14:33:51;;;;;;;13.45;11.00;;;;;;;10.55;70.16;100776.06;5261080;28;20124;-69
2022/11/14 14:36:25;;;;;;;12.65;10.98;;;;;;;10.53;70.72;100779.16;5265795;28;20047;-69
2022/11/14 14:39:25;;;;;;;15.18;11.45;;;;;;;10.36;71.11;100774.03;5265632;28;20079;-69
2022/11/14 14:41:57;;;;;;;13.75;11.82;;;;;;;10.36;71.95;100765.72;5260250;28;20170;-68
2022/11/14 14:44:32;;;;;;;16.98;11.88;;;;;;;10.49;74.81;100763.38;5260003;28;22361;-69
2022/11/14 14:47:36;;;;;;;15.77;13.02;;;;;;;10.39;71.68;100765.13;5260854;28;20055;-69
2022/11/14 14:50:21;;;;;;;15.90;14.05;;;;;;;10.35;71.85;100777.06;5260531;28;20104;-69
2022/11/14 14:52:57;;;;;;;16.45;13.40;;;;;;;10.30;71.87;100780.72;5259577;28;20372;-69
2022/11/14 14:55:31;;;;;;;13.75;11.60;;;;;;;10.23;71.62;100791.28;5261163;28;20104;-68
2022/11/14 14:58:33;;;;;;;19.73;12.10;;;;;;;10.22;71.90;100786.84;5259703;28;20033;-69
2022/11/14 15:01:17;;;;;;;15.43;12.07;;;;;;;10.16;71.85;100785.25;5240149;28;20033;-69
2022/11/14 15:04:00;;;;;;;14.50;10.95;;;;;;;10.12;72.13;100782.19;5260890;28;20419;-68
2022/11/14 15:06:37;;;;;;;12.98;11.68;;;;;;;10.07;72.34;100782.25;5259165;28;20039;-68
2022/11/14 15:09:16;;;;;;;15.80;12.68;;;;;;;10.08;72.98;100777.56;5260616;28;20445;-68
2022/11/14 15:11:53;;;;;;;14.80;12.15;;;;;;;10.01;73.35;100769.53;5259758;28;20029;-68
2022/11/14 15:14:28;;;;;;;14.45;12.48;;;;;;;10.11;74.38;100777.78;5260498;28;20032;-68
2022/11/14 15:17:02;;;;;;;15.93;12.20;;;;;;;9.94;73.54;100772.63;5262187;28;20040;-69
2022/11/14 15:19:39;;;;;;;13.30;11.88;;;;;;;9.85;73.48;100763.28;5281029;28;20099;-68
2022/11/14 15:22:13;;;;;;;14.57;10.65;;;;;;;10.17;75.82;100760.00;5281476;28;20438;-68
2022/11/14 15:25:11;;;;;;;15.20;12.13;;;;;;;9.86;74.81;100776.00;5278715;28;20051;-69
2022/11/14 15:27:57;;;;;;;16.65;13.98;;;;;;;9.82;74.48;100768.56;5261868;28;20037;-68
2022/11/14 15:30:33;;;;;;;48.08;37.92;;;;;;;9.77;75.03;100766.66;5265188;28;20365;-68
2022/11/14 15:33:28;;;;;;;17.00;13.23;;;;;;;9.83;74.98;100761.91;5263740;28;20095;-68
2022/11/14 15:36:16;;;;;;;13.95;11.73;;;;;;;9.79;75.14;100764.41;5264425;28;20033;-68
2022/11/14 15:39:25;;;;;;;14.10;12.18;;;;;;;9.75;75.07;100771.66;5263590;28;20025;-68
2022/11/14 15:42:13;;;;;;;14.55;12.95;;;;;;;9.72;75.48;100769.47;5259124;28;20041;-68
2022/11/14 15:44:45;;;;;;;15.18;12.15;;;;;;;9.64;75.42;100767.28;5271490;28;20494;-69
2022/11/14 15:47:20;;;;;;;17.55;13.13;;;;;;;9.61;76.19;100760.38;5276699;28;20040;-69
2022/11/14 15:50:20;;;;;;;13.55;11.35;;;;;;;9.59;76.16;100768.16;5284136;28;20498;-69
2022/11/14 15:53:00;;;;;;;13.77;10.82;;;;;;;9.52;76.04;100765.69;5284308;28;20025;-69
2022/11/14 15:55:31;;;;;;;12.45;11.00;;;;;;;9.74;77.23;100768.06;5283453;28;20055;-69
2022/11/14 15:58:03;;;;;;;14.68;13.07;;;;;;;9.51;76.98;100761.28;5284581;28;20025;-68
2022/11/14 16:00:34;;;;;;;15.52;13.48;;;;;;;9.48;76.57;100761.81;5280467;28;20087;-69
2022/11/14 16:03:11;;;;;;;13.70;11.07;;;;;;;9.44;76.45;100760.75;5289482;28;20025;-68
2022/11/14 16:05:42;;;;;;;13.35;10.98;;;;;;;9.41;76.62;100761.31;5280292;28;20394;-69
2022/11/14 16:08:17;;;;;;;14.50;11.35;;;;;;;9.47;78.53;100762.94;5282988;28;20029;-69
2022/11/14 16:10:48;;;;;;;13.85;9.82;;;;;;;9.38;77.19;100758.28;5284374;28;20383;-69
2022/11/14 16:13:19;;;;;;;11.90;10.48;;;;;;;9.40;77.66;100751.34;5284252;28;20043;-69
2022/11/14 16:15:50;;;;;;;11.48;10.30;;;;;;;9.38;77.61;100759.09;5283943;28;20031;-69
2022/11/14 16:18:25;;;;;;;11.63;10.32;;;;;;;9.42;76.93;100754.66;5284395;28;20020;-69
2022/11/14 16:20:58;;;;;;;11.63;9.52;;;;;;;9.35;76.75;100754.13;5298892;28;20028;-69
2022/11/14 16:23:32;;;;;;;12.27;10.13;;;;;;;9.41;77.29;100753.03;5304968;28;20032;-69
2022/11/14 16:26:03;;;;;;;12.68;8.98;;;;;;;9.43;76.76;100759.06;5305167;28;20459;-69
2022/11/14 16:28:34;;;;;;;13.75;9.93;;;;;;;9.31;76.78;100761.38;5305091;28;20073;-69
2022/11/14 16:31:13;;;;;;;10.25;8.93;;;;;;;9.40;76.90;100754.09;5294872;28;20020;-68
2022/11/14 16:33:44;;;;;;;13.52;11.60;;;;;;;9.33;76.63;100748.91;5266013;28;20038;-69
2022/11/14 16:36:20;;;;;;;12.13;8.80;;;;;;;9.36;76.87;100756.63;5283845;28;20471;-69
